Map

Track Data

SID SEASON NUMBER BASIN SUBBASIN NAME ISO_TIME NATURE LAT LON WMO_WIND WMO_PRES WMO_AGENCY TRACK_TYPE DIST2LAND LANDFALL IFLAG USA_AGENCY USA_ATCF_ID USA_LAT USA_LON USA_RECORD USA_STATUS USA_WIND USA_PRES USA_SSHS USA_R34_NE USA_R34_SE USA_R34_SW USA_R34_NW USA_R50_NE USA_R50_SE USA_R50_SW USA_R50_NW USA_R64_NE USA_R64_SE USA_R64_SW USA_R64_NW USA_POCI USA_ROCI USA_RMW USA_EYE TOKYO_LAT TOKYO_LON TOKYO_GRADE TOKYO_WIND TOKYO_PRES TOKYO_R50_DIR TOKYO_R50_LONG TOKYO_R50_SHORT TOKYO_R30_DIR TOKYO_R30_LONG TOKYO_R30_SHORT TOKYO_LAND CMA_LAT CMA_LON CMA_CAT CMA_WIND CMA_PRES HKO_LAT HKO_LON HKO_CAT HKO_WIND HKO_PRES NEWDELHI_LAT NEWDELHI_LON NEWDELHI_GRADE NEWDELHI_WIND NEWDELHI_PRES NEWDELHI_CI NEWDELHI_DP NEWDELHI_POCI REUNION_LAT REUNION_LON REUNION_TYPE REUNION_WIND REUNION_PRES REUNION_TNUM REUNION_CI REUNION_RMW REUNION_R34_NE REUNION_R34_SE REUNION_R34_SW REUNION_R34_NW REUNION_R50_NE REUNION_R50_SE REUNION_R50_SW REUNION_R50_NW REUNION_R64_NE REUNION_R64_SE REUNION_R64_SW REUNION_R64_NW BOM_LAT BOM_LON BOM_TYPE BOM_WIND BOM_PRES BOM_TNUM BOM_CI BOM_RMW BOM_R34_NE BOM_R34_SE BOM_R34_SW BOM_R34_NW BOM_R50_NE BOM_R50_SE BOM_R50_SW BOM_R50_NW BOM_R64_NE BOM_R64_SE BOM_R64_SW BOM_R64_NW BOM_ROCI BOM_POCI BOM_EYE BOM_POS_METHOD BOM_PRES_METHOD NADI_LAT NADI_LON NADI_CAT NADI_WIND NADI_PRES WELLINGTON_LAT WELLINGTON_LON WELLINGTON_WIND WELLINGTON_PRES DS824_LAT DS824_LON DS824_STAGE DS824_WIND DS824_PRES TD9636_LAT TD9636_LON TD9636_STAGE TD9636_WIND TD9636_PRES TD9635_LAT TD9635_LON TD9635_WIND TD9635_PRES TD9635_ROCI NEUMANN_LAT NEUMANN_LON NEUMANN_CLASS NEUMANN_WIND NEUMANN_PRES MLC_LAT MLC_LON MLC_CLASS MLC_WIND MLC_PRES USA_GUST BOM_GUST BOM_GUST_PER REUNION_GUST REUNION_GUST_PER USA_SEAHGT USA_SEARAD_NE USA_SEARAD_SE USA_SEARAD_SW USA_SEARAD_NW STORM_SPEED STORM_DIR
1921297N12086 1921 57 NI BB NOT_NAMED 1921-10-24 00:00:00 TS 11.9000 86.1000 main 645 640 _________O____ -1 11.9000 86.1000 TC 30 6 352
1921297N12086 1921 57 NI BB NOT_NAMED 1921-10-24 03:00:00 TS 12.1983 86.0683 main 640 599 _________PO___ -1 12.3475 86.0525 TC 30 11.9000 86.1000 1 7 353
1921297N12086 1921 57 NI BB NOT_NAMED 1921-10-24 06:00:00 TS 12.6263 86.0138 main 599 566 _________OP___ -1 12.8000 86.0000 TC 30 12.3657 86.0345 1 9 353
1921297N12086 1921 57 NI BB NOT_NAMED 1921-10-24 09:00:00 TS 13.0722 85.9565 main 558 519 _________PP___ -1 13.2575 85.9425 TC 30 12.8251 85.9751 1 9 354
1921297N12086 1921 57 NI BB NOT_NAMED 1921-10-24 12:00:00 TS 13.4860 85.9141 main 519 490 _________OP___ -1 13.7000 85.9000 TC 30 13.2719 85.9281 1 8 355
1921297N12086 1921 57 NI BB NOT_NAMED 1921-10-24 15:00:00 TS 13.9037 85.8888 main 490 463 _________PO___ -1 14.1075 85.8775 TC 30 13.7000 85.9000 1 8 358
1921297N12086 1921 57 NI BB NOT_NAMED 1921-10-24 18:00:00 TS 14.3031 85.8985 main 463 434 _________OP___ -1 14.5000 85.9000 TC 30 14.1062 85.8971 1 8 4
1921297N12086 1921 57 NI BB NOT_NAMED 1921-10-24 21:00:00 TS 14.6962 85.9514 main 441 409 _________PP___ -1 14.8925 85.9775 TC 30 14.4999 85.9254 1 8 10
1921297N12086 1921 57 NI BB NOT_NAMED 1921-10-25 00:00:00 TS 15.0968 86.0455 main 409 378 _________OP___ -1 15.3000 86.1000 TC 30 14.8936 85.9910 1 9 14
1921297N12086 1921 57 NI BB NOT_NAMED 1921-10-25 03:00:00 TS 15.5212 86.1638 main 384 356 _________PO___ -1 15.7425 86.2276 TC 30 15.3000 86.1000 1 9 17
1921297N12086 1921 57 NI BB NOT_NAMED 1921-10-25 06:00:00 TS 15.9698 86.3203 main 347 331 _________OP___ -1 16.2000 86.4000 TC 30 15.7396 86.2407 1 10 21
1921297N12086 1921 57 NI BB NOT_NAMED 1921-10-25 09:00:00 TS 16.4212 86.5264 main 331 315 _________PP___ -1 16.6500 86.6276 TC 30 16.1924 86.4251 1 10 26
1921297N12086 1921 57 NI BB NOT_NAMED 1921-10-25 12:00:00 TS 16.8745 86.7735 main 315 302 _________OP___ -1 17.1000 86.9000 TC 30 16.6490 86.6471 1 10 29
1921297N12086 1921 57 NI BB NOT_NAMED 1921-10-25 15:00:00 TS 17.3287 87.0463 main 304 263 _________PO___ -1 17.5575 87.1926 TC 30 17.1000 86.9000 1 11 31
1921297N12086 1921 57 NI BB NOT_NAMED 1921-10-25 18:00:00 TS 17.7804 87.3395 main 263 237 _________OP___ -1 18.0000 87.5000 TC 30 17.5607 87.1790 1 11 33
1921297N12086 1921 57 NI BB NOT_NAMED 1921-10-25 21:00:00 TS 18.2201 87.6460 main 237 222 _________PP___ -1 18.4300 87.8075 TC 30 18.0101 87.4845 1 10 35
1921297N12086 1921 57 NI BB NOT_NAMED 1921-10-26 00:00:00 TS 18.6147 87.9489 main 222 221 _________OP___ -1 18.8000 88.1000 TC 30 18.4295 87.7978 1 9 38
1921297N12086 1921 57 NI BB NOT_NAMED 1921-10-26 03:00:00 TS 18.9362 88.2289 main 221 214 _________PO___ -1 19.0724 88.3577 TC 30 18.8000 88.1000 1 8 41
1921297N12086 1921 57 NI BB NOT_NAMED 1921-10-26 06:00:00 TS 19.2021 88.4845 main 224 219 _________OP___ -1 19.3000 88.6000 TC 30 19.1042 88.3691 1 7 43
1921297N12086 1921 57 NI BB NOT_NAMED 1921-10-26 09:00:00 TS 19.4511 88.7330 main 222 212 _________PP___ -1 19.5424 88.8427 TC 30 19.3597 88.6233 1 7 44
1921297N12086 1921 57 NI BB NOT_NAMED 1921-10-26 12:00:00 TS 19.6927 88.9829 main 212 190 _________OP___ -1 19.8000 89.1000 TC 30 19.5855 88.8658 1 7 44
1921297N12086 1921 57 NI BB NOT_NAMED 1921-10-26 15:00:00 TS 19.9575 89.2574 main 180 161 _________PO___ -1 20.1151 89.4148 TC 30 19.8000 89.1000 1 7 44
1921297N12086 1921 57 NI BB NOT_NAMED 1921-10-26 18:00:00 TS 20.1821 89.4879 main 161 147 _________OP___ -1 20.4000 89.7000 TC 30 20.0186 89.3289 1 6 44
1921297N12086 1921 57 NI BB NOT_NAMED 1921-10-26 21:00:00 TS 20.3786 89.6856 main 147 140 _________PP___ -1 20.5824 89.8826 TC 30 20.2428 89.5543 1 5 43
1921297N12086 1921 57 NI BB NOT_NAMED 1921-10-27 00:00:00 TS 20.5470 89.8517 main 143 123 _________OP___ -1 20.7000 90.0000 TC 30 20.4706 89.7775 1 4 42
1921297N12086 1921 57 NI BB NOT_NAMED 1921-10-27 03:00:00 NR 20.7000 90.0000 main 123 __________O___ -1 TC 20.7000 90.0000 1 4 42

About IBTrACS Database

This database is a web-friendly format of International Best Track Archive for Climate Stewardship (IBTrACS), a global best track data archive curated by NOAA dating back to 1842.

Updated: 2021-10-21